AirNav   Bose ProFlight Series 2 Headset
 
 637 users online  

2MD5 Hoby Wolf Airport
Eldersburg, Maryland, USA

GOING TO ELDERSBURG?


FAA INFORMATION EFFECTIVE 02 JANUARY 2020

Location

FAA Identifier: 2MD5
Lat/Long: 39-24-28.6000N 076-55-39.2000W
39-24.476667N 076-55.653333W
39.4079444,-76.9275556
(estimated)
Elevation: 600 ft. / 183 m (estimated)
Variation: 10W (1985)
From city: 1 mile E of ELDERSBURG, MD
Time zone: UTC -5 (UTC -4 during Daylight Saving Time)
Zip code: 21784

Airport Operations

Airport use: Private use. Permission required prior to landing
Activation date: 06/1964
Control tower: no
ARTCC: WASHINGTON CENTER
FSS: LEESBURG FLIGHT SERVICE STATION
Attendance: UNATNDD
Wind indicator: no
Segmented circle: no

Airport Communications

WX AWOS-3 at DMW (13 nm N): 121.25 (410-876-1281)
WX AWOS-3PT at GAI (18 nm SW): 128.275 (301-977-2971)
WX ASOS at BWI (18 nm SE): PHONE 410-691-1278

Nearby radio navigation aids

VOR radial/distance  VOR name  Freq  Var
EMIr164/5.7WESTMINSTER VORTAC117.9008W
BALr330/18.8BALTIMORE VORTAC115.1011W
FDKr099/(20.7)FREDERICK VOR109.0008W
DCAr018/33.3WASHINGTON VOR/DME111.0009W
ADWr005/36.2ANDREWS VORTAC113.1010W
AMLr049/37.9ARMEL VOR/DME113.5008W

 
NDB name  Hdg/Dist  Freq  Var  ID
ELLICOTT327/10.137111WFND ..-. -. -..
GEORGETOWN027/30.132309WGTN --. - -.
OXONN018/38.833211WDCA -.. -.-. .-

Airport Services

Parking: tiedowns
Airframe service: MINOR
Powerplant service: MINOR

Runway Information

Runway 2/20

Dimensions: 2000 x 60 ft. / 610 x 18 m
Surface: turf, in fair condition
HAS UP & DOWN SLOPES WITH UNDULATIONS.
Operational restrictions: LND RY 20; TKOF RY 02.
RUNWAY 2  RUNWAY 20
Latitude: 39-24.314333N39-24.640333N
Longitude: 076-55.684667W076-55.623167W
Traffic pattern: leftleft
Obstructions: 69 ft. trees, 80 ft. from runway, 1:1 slope to clear41 ft. trees, 130 ft. from runway, 3:1 slope to clear
APCH RATIO 20:1 AT DSPLCD THLD MKD WITH TRAFFIC CONES.

Airport Ownership and Management from official FAA records

Ownership: Privately-owned
Owner: MRS. HOBY WOLF
6122 OKLAHOMA RD
SYKESVILLE, MD 21784
Phone 410-795-3241
Manager: DAN WOLF
319A SAVANNAH RD
ESSEX, MD 21221
Phone 410-952-1294

Airport Operational Statistics

Aircraft based on the field: 1
Single engine airplanes: 1
    

Additional Remarks

UNLIMITED VEHICLE ACCESS TO ACFT MOVEMENT AREAS
BIRDS & WILDLIFE ON & INVOF ARPT.
PRIVATE ROAD CROSSING RY 02 AT THLD.
UNLIMITED VEHICLE ACCESS TO ACFT MOVEMENT AREAS.
RY 20 APCH SLOPE RATIO TO 250 FT. DSPLCD THLD IS 20:1.
FOR CD CTC POTOMAC APCH AT 866-429-5882

Instrument Procedures

There are no published instrument procedures at 2MD5.

Some nearby airports with instrument procedures:

2W2 - Clearview Airpark (5 nm NW)
KDMW - Carroll County Regional Airport/Jack B Poage Field (13 nm N)
W50 - Davis Airport (14 nm SW)
KGAI - Montgomery County Airpark (18 nm SW)
KBWI - Baltimore/Washington International Thurgood Marshall Airport (18 nm SE)
 
Loc | Ops | Rwys | IFR | FBO | Links
Com | Nav | Svcs | Stats | Notes
Area around 2MD5 (Hoby Wolf Airport)
 
Road maps at: MapQuest Bing Google
 
Aerial photo
No photo
 
Sectional chart

 
Airport distance calculator
Flying to Hoby Wolf Airport? Find the distance to fly.

From to 2MD5

Sunrise and sunset
Times for 24-Jan-2020
 Local
(UTC-5)
 Zulu
(UTC)
Morning civil twilight06:5411:54
Sunrise07:2212:22
Sunset17:1722:17
Evening civil twilight17:4622:46

Current date and time
Zulu (UTC)  24-Jan-2020 09:36:45
Local (UTC-5)  24-Jan-2020 04:36:45
 
METAR
KDMW 
13nm N 
240905Z AUTO 00000KT 10SM SCT021 02/M02 A3028 RMK AO2
KDMH 
16nm SE 
240854Z AUTO 02/M04 A3032 RMK AO1 SLP268 T00171039 58004
KGAI 
18nm SW 
240856Z AUTO 00000KT 10SM FEW024 01/M05 A3030 RMK AO2 SLP281 T00061050 58002 FZRANO
KBWI 
18nm SE 
240854Z 00000KT 10SM SCT011 BKN033 BKN160 M01/M04 A3032 RMK AO2 SLP267 T10061044 58005
KFDK 
20nm W 
240910Z AUTO 00000KT 10SM OVC017 01/M02 A3032 RMK AO2
KFME 
21nm S 
240906Z AUTO 00000KT 10SM SCT011 M01/M03 A3033 RMK AO1
KMTN 
24nm E 
240907Z AUTO 00000KT 10SM BKN017 M01/M02 A3034 RMK AO2
TAF
KBWI 
18nm SE 
240527Z 2406/2512 00000KT P6SM SCT030 OVC120 FM242000 09008KT P6SM BKN080 FM250100 09010KT P6SM BKN050 FM250300 09011KT P6SM -RA OVC020 FM250600 09011KT 6SM RA BR OVC008 FM251100 10010KT 3SM RA BR OVC008 WS020/11040KT
NOTAMs
Click for the latest NOTAMs
NOTAMs are issued by the DoD/FAA and will open in a separate window not controlled by AirNav.

 

 
 

Would you like to see your business listed on this page?

 If your business provides an interesting product or service to pilots, flight crews, aircraft, or users of the Hoby Wolf Airport, you should consider listing it here.  To start the listing process, click on the button below
 
Add a business
 

Other Pages about Hoby Wolf Airport

Update a link
 
Copyright © AirNav, LLC. All rights reserved. Privacy Policy  Contact